Ajman, United Arab Emirates
Current Conditions -  °F | °C
As of 11:00 AM on Friday 19 Dec 2014 (Local Time) from OMSJ Reporting Station
Clear Clear  
Wind Chill: 75°   Ceiling: Unl
Heat Index: 75°   Visibility: 6mi
Dew Point: 48°   Wind: 0mph
Humidity: 38%   Direction: NA
Pressure: 30.21"   Gusts: NA
Location:  25.42°N, 55.43°E
Report Text: OMSJ 190700Z 00000KT CAVOK 24/09 Q1023
Loading
Personal Weather Stations






























Interactive Weather Map New forecast layout! Learn more

10-Day Weather Forecast

Advertisements
Track Severe Weather on mobile